sensor_id;sensor_type;location;lat;lon;timestamp;P1;durP1;ratioP1;P2;durP2;ratioP2
70535;SDS011;58089;48.752;11.338;2022-11-15T00:00:31;25.05;;;13.60;;
70535;SDS011;58089;48.752;11.338;2022-11-15T00:02:57;28.40;;;14.03;;
70535;SDS011;58089;48.752;11.338;2022-11-15T00:05:22;22.93;;;13.00;;
70535;SDS011;58089;48.752;11.338;2022-11-15T00:07:47;22.93;;;11.90;;
70535;SDS011;58089;48.752;11.338;2022-11-15T00:10:12;22.57;;;12.40;;
70535;SDS011;58089;48.752;11.338;2022-11-15T00:12:38;22.63;;;12.77;;
70535;SDS011;58089;48.752;11.338;2022-11-15T00:15:03;21.23;;;11.33;;
70535;SDS011;58089;48.752;11.338;2022-11-15T00:17:29;17.92;;;10.35;;
70535;SDS011;58089;48.752;11.338;2022-11-15T00:19:54;17.77;;;10.77;;
70535;SDS011;58089;48.752;11.338;2022-11-15T00:22:20;25.07;;;13.83;;
70535;SDS011;58089;48.752;11.338;2022-11-15T00:24:45;24.60;;;13.50;;
70535;SDS011;58089;48.752;11.338;2022-11-15T00:27:10;21.33;;;10.67;;
70535;SDS011;58089;48.752;11.338;2022-11-15T00:29:35;21.83;;;11.60;;
70535;SDS011;58089;48.752;11.338;2022-11-15T00:32:03;26.30;;;14.23;;
70535;SDS011;58089;48.752;11.338;2022-11-15T00:34:29;23.17;;;12.73;;
70535;SDS011;58089;48.752;11.338;2022-11-15T00:36:54;21.90;;;12.77;;
70535;SDS011;58089;48.752;11.338;2022-11-15T00:39:19;21.43;;;12.47;;
70535;SDS011;58089;48.752;11.338;2022-11-15T00:41:44;21.03;;;12.90;;
70535;SDS011;58089;48.752;11.338;2022-11-15T00:44:10;21.77;;;11.40;;
70535;SDS011;58089;48.752;11.338;2022-11-15T00:46:35;17.93;;;10.33;;
70535;SDS011;58089;48.752;11.338;2022-11-15T00:49:00;17.13;;;9.43;;
70535;SDS011;58089;48.752;11.338;2022-11-15T00:51:25;18.07;;;9.67;;
70535;SDS011;58089;48.752;11.338;2022-11-15T00:53:51;18.57;;;10.47;;
70535;SDS011;58089;48.752;11.338;2022-11-15T00:56:16;17.77;;;10.43;;
70535;SDS011;58089;48.752;11.338;2022-11-15T00:58:41;17.87;;;9.33;;
70535;SDS011;58089;48.752;11.338;2022-11-15T01:01:11;17.73;;;10.13;;
70535;SDS011;58089;48.752;11.338;2022-11-15T01:03:38;17.98;;;9.80;;
70535;SDS011;58089;48.752;11.338;2022-11-15T01:06:04;16.65;;;9.88;;
70535;SDS011;58089;48.752;11.338;2022-11-15T01:08:30;18.40;;;10.17;;
70535;SDS011;58089;48.752;11.338;2022-11-15T01:10:59;16.60;;;9.73;;
70535;SDS011;58089;48.752;11.338;2022-11-15T01:13:32;15.60;;;9.13;;
70535;SDS011;58089;48.752;11.338;2022-11-15T01:15:58;15.02;;;8.80;;
70535;SDS011;58089;48.752;11.338;2022-11-15T01:18:24;14.32;;;8.68;;
70535;SDS011;58089;48.752;11.338;2022-11-15T01:20:50;16.30;;;9.90;;
70535;SDS011;58089;48.752;11.338;2022-11-15T01:23:15;16.47;;;9.40;;
70535;SDS011;58089;48.752;11.338;2022-11-15T01:25:40;16.93;;;9.60;;
70535;SDS011;58089;48.752;11.338;2022-11-15T01:28:06;14.50;;;8.97;;
70535;SDS011;58089;48.752;11.338;2022-11-15T01:30:31;23.53;;;12.83;;
70535;SDS011;58089;48.752;11.338;2022-11-15T01:32:56;21.10;;;10.97;;
70535;SDS011;58089;48.752;11.338;2022-11-15T01:35:21;17.17;;;9.40;;
70535;SDS011;58089;48.752;11.338;2022-11-15T01:37:47;15.43;;;8.33;;
70535;SDS011;58089;48.752;11.338;2022-11-15T01:40:12;16.70;;;9.07;;
70535;SDS011;58089;48.752;11.338;2022-11-15T01:42:38;15.93;;;8.90;;
70535;SDS011;58089;48.752;11.338;2022-11-15T01:45:04;15.27;;;8.27;;
70535;SDS011;58089;48.752;11.338;2022-11-15T01:47:37;14.00;;;7.90;;
70535;SDS011;58089;48.752;11.338;2022-11-15T01:52:35;14.23;;;7.88;;
70535;SDS011;58089;48.752;11.338;2022-11-15T01:55:34;14.82;;;8.30;;
70535;SDS011;58089;48.752;11.338;2022-11-15T01:57:57;13.15;;;7.45;;
70535;SDS011;58089;48.752;11.338;2022-11-15T02:00:24;14.43;;;8.20;;
70535;SDS011;58089;48.752;11.338;2022-11-15T02:02:49;13.85;;;7.95;;
70535;SDS011;58089;48.752;11.338;2022-11-15T02:05:15;16.43;;;8.10;;
70535;SDS011;58089;48.752;11.338;2022-11-15T02:07:40;15.63;;;8.50;;
70535;SDS011;58089;48.752;11.338;2022-11-15T02:10:19;15.73;;;9.03;;
70535;SDS011;58089;48.752;11.338;2022-11-15T02:12:45;14.73;;;7.90;;
70535;SDS011;58089;48.752;11.338;2022-11-15T02:15:11;13.57;;;7.88;;
70535;SDS011;58089;48.752;11.338;2022-11-15T02:17:48;15.33;;;8.70;;
70535;SDS011;58089;48.752;11.338;2022-11-15T02:32:21;13.73;;;7.67;;
70535;SDS011;58089;48.752;11.338;2022-11-15T02:37:43;14.40;;;8.02;;
70535;SDS011;58089;48.752;11.338;2022-11-15T02:40:21;14.43;;;8.15;;
70535;SDS011;58089;48.752;11.338;2022-11-15T02:42:56;14.63;;;8.00;;
70535;SDS011;58089;48.752;11.338;2022-11-15T02:46:02;13.87;;;7.47;;
70535;SDS011;58089;48.752;11.338;2022-11-15T02:48:31;13.43;;;7.85;;
70535;SDS011;58089;48.752;11.338;2022-11-15T02:50:57;12.77;;;7.80;;
70535;SDS011;58089;48.752;11.338;2022-11-15T02:53:23;15.02;;;8.10;;
70535;SDS011;58089;48.752;11.338;2022-11-15T02:55:49;13.50;;;7.97;;
70535;SDS011;58089;48.752;11.338;2022-11-15T03:01:19;12.43;;;6.72;;
70535;SDS011;58089;48.752;11.338;2022-11-15T03:06:57;12.63;;;7.43;;
70535;SDS011;58089;48.752;11.338;2022-11-15T03:12:24;13.50;;;7.57;;
70535;SDS011;58089;48.752;11.338;2022-11-15T03:14:55;13.13;;;7.50;;
70535;SDS011;58089;48.752;11.338;2022-11-15T03:17:53;12.45;;;7.32;;
70535;SDS011;58089;48.752;11.338;2022-11-15T03:20:21;15.25;;;7.78;;
70535;SDS011;58089;48.752;11.338;2022-11-15T03:22:46;13.03;;;7.37;;
70535;SDS011;58089;48.752;11.338;2022-11-15T03:25:15;11.20;;;7.25;;
70535;SDS011;58089;48.752;11.338;2022-11-15T03:27:43;14.40;;;7.53;;
70535;SDS011;58089;48.752;11.338;2022-11-15T03:30:12;13.00;;;7.45;;
70535;SDS011;58089;48.752;11.338;2022-11-15T03:32:40;13.48;;;7.18;;
70535;SDS011;58089;48.752;11.338;2022-11-15T03:35:22;15.20;;;7.97;;
70535;SDS011;58089;48.752;11.338;2022-11-15T03:37:52;12.90;;;7.40;;
70535;SDS011;58089;48.752;11.338;2022-11-15T03:40:38;13.57;;;7.38;;
70535;SDS011;58089;48.752;11.338;2022-11-15T03:45:40;12.95;;;7.55;;
70535;SDS011;58089;48.752;11.338;2022-11-15T03:48:13;13.75;;;6.63;;
70535;SDS011;58089;48.752;11.338;2022-11-15T03:50:41;13.00;;;7.17;;
70535;SDS011;58089;48.752;11.338;2022-11-15T03:53:07;14.63;;;7.30;;
70535;SDS011;58089;48.752;11.338;2022-11-15T03:55:33;14.13;;;7.50;;
70535;SDS011;58089;48.752;11.338;2022-11-15T03:57:58;14.13;;;7.77;;
70535;SDS011;58089;48.752;11.338;2022-11-15T04:00:24;13.10;;;7.72;;
70535;SDS011;58089;48.752;11.338;2022-11-15T04:02:50;14.13;;;7.73;;
70535;SDS011;58089;48.752;11.338;2022-11-15T04:05:15;13.47;;;7.93;;
70535;SDS011;58089;48.752;11.338;2022-11-15T04:07:40;13.13;;;7.80;;
70535;SDS011;58089;48.752;11.338;2022-11-15T04:10:06;12.73;;;8.17;;
70535;SDS011;58089;48.752;11.338;2022-11-15T04:12:41;14.52;;;7.93;;
70535;SDS011;58089;48.752;11.338;2022-11-15T04:15:16;13.65;;;7.97;;
70535;SDS011;58089;48.752;11.338;2022-11-15T04:17:43;12.67;;;7.77;;
70535;SDS011;58089;48.752;11.338;2022-11-15T04:23:00;13.27;;;7.45;;
70535;SDS011;58089;48.752;11.338;2022-11-15T04:25:45;13.10;;;7.15;;
70535;SDS011;58089;48.752;11.338;2022-11-15T04:28:11;12.30;;;7.33;;
70535;SDS011;58089;48.752;11.338;2022-11-15T04:30:36;14.02;;;6.95;;
70535;SDS011;58089;48.752;11.338;2022-11-15T04:33:02;12.50;;;6.97;;
70535;SDS011;58089;48.752;11.338;2022-11-15T04:35:28;13.50;;;7.30;;
70535;SDS011;58089;48.752;11.338;2022-11-15T04:37:54;11.88;;;7.38;;
70535;SDS011;58089;48.752;11.338;2022-11-15T04:40:19;12.10;;;6.85;;
70535;SDS011;58089;48.752;11.338;2022-11-15T04:42:45;11.27;;;7.00;;
70535;SDS011;58089;48.752;11.338;2022-11-15T04:45:10;23.43;;;11.77;;
70535;SDS011;58089;48.752;11.338;2022-11-15T04:47:36;13.53;;;7.40;;
70535;SDS011;58089;48.752;11.338;2022-11-15T04:50:01;13.43;;;7.15;;
70535;SDS011;58089;48.752;11.338;2022-11-15T04:52:27;13.23;;;7.53;;
70535;SDS011;58089;48.752;11.338;2022-11-15T04:54:52;13.47;;;7.37;;
70535;SDS011;58089;48.752;11.338;2022-11-15T04:57:17;11.90;;;7.20;;
70535;SDS011;58089;48.752;11.338;2022-11-15T04:59:43;11.37;;;6.67;;
70535;SDS011;58089;48.752;11.338;2022-11-15T05:02:08;12.97;;;7.10;;
70535;SDS011;58089;48.752;11.338;2022-11-15T05:04:33;16.13;;;7.47;;
70535;SDS011;58089;48.752;11.338;2022-11-15T05:06:59;15.33;;;9.73;;
70535;SDS011;58089;48.752;11.338;2022-11-15T05:09:24;12.27;;;7.30;;
70535;SDS011;58089;48.752;11.338;2022-11-15T05:11:49;13.33;;;7.20;;
70535;SDS011;58089;48.752;11.338;2022-11-15T05:14:15;14.83;;;8.20;;
70535;SDS011;58089;48.752;11.338;2022-11-15T05:16:40;12.67;;;6.87;;
70535;SDS011;58089;48.752;11.338;2022-11-15T05:19:06;13.15;;;6.97;;
70535;SDS011;58089;48.752;11.338;2022-11-15T05:21:31;12.50;;;7.07;;
70535;SDS011;58089;48.752;11.338;2022-11-15T05:23:57;12.32;;;7.72;;
70535;SDS011;58089;48.752;11.338;2022-11-15T05:26:23;12.27;;;6.77;;
70535;SDS011;58089;48.752;11.338;2022-11-15T05:28:52;11.30;;;6.93;;
70535;SDS011;58089;48.752;11.338;2022-11-15T05:31:20;11.20;;;6.55;;
70535;SDS011;58089;48.752;11.338;2022-11-15T05:33:46;12.40;;;7.33;;
70535;SDS011;58089;48.752;11.338;2022-11-15T05:39:22;11.15;;;6.32;;
70535;SDS011;58089;48.752;11.338;2022-11-15T05:41:48;12.80;;;6.87;;
70535;SDS011;58089;48.752;11.338;2022-11-15T05:44:17;13.93;;;7.15;;
70535;SDS011;58089;48.752;11.338;2022-11-15T05:46:45;15.45;;;8.90;;
70535;SDS011;58089;48.752;11.338;2022-11-15T05:49:11;13.90;;;7.40;;
70535;SDS011;58089;48.752;11.338;2022-11-15T05:51:38;12.02;;;6.40;;
70535;SDS011;58089;48.752;11.338;2022-11-15T05:54:05;12.20;;;7.13;;
70535;SDS011;58089;48.752;11.338;2022-11-15T05:56:30;12.43;;;7.17;;
70535;SDS011;58089;48.752;11.338;2022-11-15T05:58:56;13.00;;;7.20;;
70535;SDS011;58089;48.752;11.338;2022-11-15T06:01:22;11.50;;;6.68;;
70535;SDS011;58089;48.752;11.338;2022-11-15T06:03:47;12.60;;;7.95;;
70535;SDS011;58089;48.752;11.338;2022-11-15T06:06:13;12.30;;;7.10;;
70535;SDS011;58089;48.752;11.338;2022-11-15T06:08:38;11.53;;;6.60;;
70535;SDS011;58089;48.752;11.338;2022-11-15T06:11:06;12.37;;;6.53;;
70535;SDS011;58089;48.752;11.338;2022-11-15T06:13:32;12.90;;;7.15;;
70535;SDS011;58089;48.752;11.338;2022-11-15T06:15:57;11.93;;;6.83;;
70535;SDS011;58089;48.752;11.338;2022-11-15T06:18:23;11.60;;;6.80;;
70535;SDS011;58089;48.752;11.338;2022-11-15T06:20:48;12.25;;;7.95;;
70535;SDS011;58089;48.752;11.338;2022-11-15T06:23:14;13.53;;;7.20;;
70535;SDS011;58089;48.752;11.338;2022-11-15T06:25:39;12.33;;;6.63;;
70535;SDS011;58089;48.752;11.338;2022-11-15T06:28:04;11.83;;;6.67;;
70535;SDS011;58089;48.752;11.338;2022-11-15T06:30:30;11.00;;;6.43;;
70535;SDS011;58089;48.752;11.338;2022-11-15T06:32:58;12.07;;;6.73;;
70535;SDS011;58089;48.752;11.338;2022-11-15T06:35:25;12.43;;;6.55;;
70535;SDS011;58089;48.752;11.338;2022-11-15T06:37:50;14.73;;;6.90;;
70535;SDS011;58089;48.752;11.338;2022-11-15T06:40:16;12.40;;;6.57;;
70535;SDS011;58089;48.752;11.338;2022-11-15T06:42:41;11.60;;;6.80;;
70535;SDS011;58089;48.752;11.338;2022-11-15T06:45:06;13.53;;;6.80;;
70535;SDS011;58089;48.752;11.338;2022-11-15T06:47:32;12.80;;;6.68;;
70535;SDS011;58089;48.752;11.338;2022-11-15T06:49:57;11.87;;;5.77;;
70535;SDS011;58089;48.752;11.338;2022-11-15T06:52:23;11.00;;;6.13;;
70535;SDS011;58089;48.752;11.338;2022-11-15T06:54:48;19.13;;;9.13;;
70535;SDS011;58089;48.752;11.338;2022-11-15T06:57:13;21.10;;;11.02;;
70535;SDS011;58089;48.752;11.338;2022-11-15T06:59:39;18.23;;;10.23;;
70535;SDS011;58089;48.752;11.338;2022-11-15T07:02:04;18.43;;;10.40;;
70535;SDS011;58089;48.752;11.338;2022-11-15T07:04:29;16.43;;;9.57;;
70535;SDS011;58089;48.752;11.338;2022-11-15T07:06:55;20.00;;;10.53;;
70535;SDS011;58089;48.752;11.338;2022-11-15T07:09:20;20.77;;;11.73;;
70535;SDS011;58089;48.752;11.338;2022-11-15T07:11:45;17.00;;;10.60;;
70535;SDS011;58089;48.752;11.338;2022-11-15T07:14:10;17.20;;;10.30;;
70535;SDS011;58089;48.752;11.338;2022-11-15T07:16:36;17.57;;;10.57;;
70535;SDS011;58089;48.752;11.338;2022-11-15T07:19:01;14.23;;;8.53;;
70535;SDS011;58089;48.752;11.338;2022-11-15T07:21:27;11.67;;;7.17;;
70535;SDS011;58089;48.752;11.338;2022-11-15T07:23:52;13.80;;;7.57;;
70535;SDS011;58089;48.752;11.338;2022-11-15T07:26:17;12.63;;;6.73;;
70535;SDS011;58089;48.752;11.338;2022-11-15T07:28:43;9.57;;;5.73;;
70535;SDS011;58089;48.752;11.338;2022-11-15T07:31:08;16.90;;;8.30;;
70535;SDS011;58089;48.752;11.338;2022-11-15T07:33:34;11.80;;;6.67;;
70535;SDS011;58089;48.752;11.338;2022-11-15T07:36:00;39.58;;;19.52;;
70535;SDS011;58089;48.752;11.338;2022-11-15T07:38:32;17.15;;;9.23;;
70535;SDS011;58089;48.752;11.338;2022-11-15T07:40:59;13.10;;;7.40;;
70535;SDS011;58089;48.752;11.338;2022-11-15T07:43:25;26.73;;;14.07;;
70535;SDS011;58089;48.752;11.338;2022-11-15T07:45:52;19.25;;;9.88;;
70535;SDS011;58089;48.752;11.338;2022-11-15T07:48:18;18.30;;;8.77;;
70535;SDS011;58089;48.752;11.338;2022-11-15T07:50:43;11.17;;;6.13;;
70535;SDS011;58089;48.752;11.338;2022-11-15T07:53:09;11.13;;;5.90;;
70535;SDS011;58089;48.752;11.338;2022-11-15T07:55:35;11.18;;;6.35;;
70535;SDS011;58089;48.752;11.338;2022-11-15T07:58:04;10.57;;;6.57;;
70535;SDS011;58089;48.752;11.338;2022-11-15T08:00:31;10.68;;;6.80;;
70535;SDS011;58089;48.752;11.338;2022-11-15T08:03:04;12.93;;;7.83;;
70535;SDS011;58089;48.752;11.338;2022-11-15T08:05:34;17.55;;;8.35;;
70535;SDS011;58089;48.752;11.338;2022-11-15T08:08:00;23.42;;;10.38;;
70535;SDS011;58089;48.752;11.338;2022-11-15T08:10:26;16.97;;;10.43;;
70535;SDS011;58089;48.752;11.338;2022-11-15T08:12:58;30.63;;;18.30;;
70535;SDS011;58089;48.752;11.338;2022-11-15T08:15:24;25.27;;;14.52;;
70535;SDS011;58089;48.752;11.338;2022-11-15T08:18:32;20.00;;;11.50;;
70535;SDS011;58089;48.752;11.338;2022-11-15T08:20:39;19.15;;;9.80;;
70535;SDS011;58089;48.752;11.338;2022-11-15T08:23:05;14.98;;;9.30;;
70535;SDS011;58089;48.752;11.338;2022-11-15T08:25:33;12.17;;;8.00;;
70535;SDS011;58089;48.752;11.338;2022-11-15T08:27:59;11.55;;;7.35;;
70535;SDS011;58089;48.752;11.338;2022-11-15T08:30:26;11.25;;;7.38;;
70535;SDS011;58089;48.752;11.338;2022-11-15T08:32:52;14.85;;;8.02;;
70535;SDS011;58089;48.752;11.338;2022-11-15T08:35:18;15.47;;;9.33;;
70535;SDS011;58089;48.752;11.338;2022-11-15T08:37:44;15.68;;;10.30;;
70535;SDS011;58089;48.752;11.338;2022-11-15T08:40:10;13.67;;;8.87;;
70535;SDS011;58089;48.752;11.338;2022-11-15T08:42:35;15.02;;;9.32;;
70535;SDS011;58089;48.752;11.338;2022-11-15T08:45:01;12.33;;;8.73;;
70535;SDS011;58089;48.752;11.338;2022-11-15T08:47:26;14.00;;;8.67;;
70535;SDS011;58089;48.752;11.338;2022-11-15T08:49:52;12.68;;;8.50;;
70535;SDS011;58089;48.752;11.338;2022-11-15T08:52:17;13.17;;;8.67;;
70535;SDS011;58089;48.752;11.338;2022-11-15T08:54:43;11.90;;;7.37;;
70535;SDS011;58089;48.752;11.338;2022-11-15T08:57:08;12.53;;;8.23;;
70535;SDS011;58089;48.752;11.338;2022-11-15T08:59:34;13.95;;;8.38;;
70535;SDS011;58089;48.752;11.338;2022-11-15T09:02:00;11.30;;;7.85;;
70535;SDS011;58089;48.752;11.338;2022-11-15T09:04:25;13.10;;;8.30;;
70535;SDS011;58089;48.752;11.338;2022-11-15T09:06:51;12.57;;;8.37;;
70535;SDS011;58089;48.752;11.338;2022-11-15T09:09:16;14.47;;;8.93;;
70535;SDS011;58089;48.752;11.338;2022-11-15T09:11:41;12.87;;;8.50;;
70535;SDS011;58089;48.752;11.338;2022-11-15T09:14:07;14.03;;;8.73;;
70535;SDS011;58089;48.752;11.338;2022-11-15T09:16:32;14.53;;;9.87;;
70535;SDS011;58089;48.752;11.338;2022-11-15T09:18:57;13.77;;;8.97;;
70535;SDS011;58089;48.752;11.338;2022-11-15T09:21:23;15.27;;;8.37;;
70535;SDS011;58089;48.752;11.338;2022-11-15T09:23:51;14.23;;;8.73;;
70535;SDS011;58089;48.752;11.338;2022-11-15T09:26:17;12.48;;;8.73;;
70535;SDS011;58089;48.752;11.338;2022-11-15T09:28:43;14.98;;;8.32;;
70535;SDS011;58089;48.752;11.338;2022-11-15T09:31:08;14.70;;;8.53;;
70535;SDS011;58089;48.752;11.338;2022-11-15T09:33:34;12.48;;;7.22;;
70535;SDS011;58089;48.752;11.338;2022-11-15T09:36:00;11.93;;;8.27;;
70535;SDS011;58089;48.752;11.338;2022-11-15T09:38:30;14.27;;;7.82;;
70535;SDS011;58089;48.752;11.338;2022-11-15T09:47:01;10.02;;;7.40;;
70535;SDS011;58089;48.752;11.338;2022-11-15T09:49:22;10.63;;;7.07;;
70535;SDS011;58089;48.752;11.338;2022-11-15T09:51:48;9.97;;;6.47;;
70535;SDS011;58089;48.752;11.338;2022-11-15T09:57:13;11.40;;;6.05;;
70535;SDS011;58089;48.752;11.338;2022-11-15T10:00:01;9.98;;;6.57;;
70535;SDS011;58089;48.752;11.338;2022-11-15T10:02:40;9.20;;;6.00;;
70535;SDS011;58089;48.752;11.338;2022-11-15T10:05:13;9.97;;;6.00;;
70535;SDS011;58089;48.752;11.338;2022-11-15T10:07:44;10.30;;;6.00;;
70535;SDS011;58089;48.752;11.338;2022-11-15T10:13:07;9.05;;;6.03;;
70535;SDS011;58089;48.752;11.338;2022-11-15T10:15:38;10.75;;;6.90;;
70535;SDS011;58089;48.752;11.338;2022-11-15T10:18:05;9.70;;;6.00;;
70535;SDS011;58089;48.752;11.338;2022-11-15T10:20:37;10.48;;;6.13;;
70535;SDS011;58089;48.752;11.338;2022-11-15T10:23:15;10.30;;;5.90;;
70535;SDS011;58089;48.752;11.338;2022-11-15T10:25:42;9.00;;;5.70;;
70535;SDS011;58089;48.752;11.338;2022-11-15T10:30:51;8.27;;;4.80;;
70535;SDS011;58089;48.752;11.338;2022-11-15T10:33:31;9.73;;;5.40;;
70535;SDS011;58089;48.752;11.338;2022-11-15T10:41:21;9.18;;;5.60;;
70535;SDS011;58089;48.752;11.338;2022-11-15T10:44:01;9.55;;;5.40;;
70535;SDS011;58089;48.752;11.338;2022-11-15T10:46:48;8.98;;;5.43;;
70535;SDS011;58089;48.752;11.338;2022-11-15T10:49:26;9.30;;;5.97;;
70535;SDS011;58089;48.752;11.338;2022-11-15T10:51:59;11.80;;;6.85;;
70535;SDS011;58089;48.752;11.338;2022-11-15T10:57:10;9.75;;;5.63;;
70535;SDS011;58089;48.752;11.338;2022-11-15T10:59:38;10.07;;;6.15;;
70535;SDS011;58089;48.752;11.338;2022-11-15T11:02:30;10.67;;;5.67;;
70535;SDS011;58089;48.752;11.338;2022-11-15T11:04:57;9.27;;;5.43;;
70535;SDS011;58089;48.752;11.338;2022-11-15T11:07:31;9.57;;;6.05;;
70535;SDS011;58089;48.752;11.338;2022-11-15T11:10:05;9.93;;;5.70;;
70535;SDS011;58089;48.752;11.338;2022-11-15T11:12:32;8.98;;;5.97;;
70535;SDS011;58089;48.752;11.338;2022-11-15T11:14:59;8.07;;;5.43;;
70535;SDS011;58089;48.752;11.338;2022-11-15T11:17:32;9.38;;;5.43;;
70535;SDS011;58089;48.752;11.338;2022-11-15T11:20:05;11.55;;;5.55;;
70535;SDS011;58089;48.752;11.338;2022-11-15T11:28:05;9.37;;;5.23;;
70535;SDS011;58089;48.752;11.338;2022-11-15T11:36:45;9.45;;;5.38;;
70535;SDS011;58089;48.752;11.338;2022-11-15T11:39:36;10.82;;;5.95;;
70535;SDS011;58089;48.752;11.338;2022-11-15T11:42:22;10.13;;;5.60;;
70535;SDS011;58089;48.752;11.338;2022-11-15T11:47:48;10.00;;;6.22;;
70535;SDS011;58089;48.752;11.338;2022-11-15T11:50:20;9.05;;;5.80;;
70535;SDS011;58089;48.752;11.338;2022-11-15T11:52:58;9.77;;;5.70;;
70535;SDS011;58089;48.752;11.338;2022-11-15T11:55:34;11.40;;;6.00;;
70535;SDS011;58089;48.752;11.338;2022-11-15T11:58:14;8.82;;;5.72;;
70535;SDS011;58089;48.752;11.338;2022-11-15T12:00:55;9.32;;;5.57;;
70535;SDS011;58089;48.752;11.338;2022-11-15T12:04:30;9.95;;;5.15;;
70535;SDS011;58089;48.752;11.338;2022-11-15T12:06:31;9.50;;;5.57;;
70535;SDS011;58089;48.752;11.338;2022-11-15T12:09:03;8.43;;;5.43;;
70535;SDS011;58089;48.752;11.338;2022-11-15T12:14:16;9.30;;;5.70;;
70535;SDS011;58089;48.752;11.338;2022-11-15T12:16:48;8.57;;;5.50;;
70535;SDS011;58089;48.752;11.338;2022-11-15T12:19:13;8.67;;;5.20;;
70535;SDS011;58089;48.752;11.338;2022-11-15T12:21:44;10.23;;;6.23;;
70535;SDS011;58089;48.752;11.338;2022-11-15T12:27:17;9.82;;;5.80;;
70535;SDS011;58089;48.752;11.338;2022-11-15T12:29:51;10.00;;;6.30;;
70535;SDS011;58089;48.752;11.338;2022-11-15T12:32:29;8.65;;;5.25;;
70535;SDS011;58089;48.752;11.338;2022-11-15T12:34:57;9.25;;;5.43;;
70535;SDS011;58089;48.752;11.338;2022-11-15T12:45:32;9.50;;;5.15;;
70535;SDS011;58089;48.752;11.338;2022-11-15T12:56:08;14.07;;;7.10;;
70535;SDS011;58089;48.752;11.338;2022-11-15T12:58:53;11.00;;;6.68;;
70535;SDS011;58089;48.752;11.338;2022-11-15T13:04:08;10.32;;;5.30;;
70535;SDS011;58089;48.752;11.338;2022-11-15T13:07:02;9.18;;;4.97;;
70535;SDS011;58089;48.752;11.338;2022-11-15T13:11:54;9.17;;;5.20;;
70535;SDS011;58089;48.752;11.338;2022-11-15T13:14:54;9.27;;;4.88;;
70535;SDS011;58089;48.752;11.338;2022-11-15T13:17:17;7.22;;;4.38;;
70535;SDS011;58089;48.752;11.338;2022-11-15T13:22:26;7.68;;;4.72;;
70535;SDS011;58089;48.752;11.338;2022-11-15T13:25:15;9.47;;;4.60;;
70535;SDS011;58089;48.752;11.338;2022-11-15T13:30:48;9.02;;;5.35;;
70535;SDS011;58089;48.752;11.338;2022-11-15T13:33:25;13.50;;;5.07;;
70535;SDS011;58089;48.752;11.338;2022-11-15T13:35:56;8.73;;;5.00;;
70535;SDS011;58089;48.752;11.338;2022-11-15T13:40:56;9.50;;;5.38;;
70535;SDS011;58089;48.752;11.338;2022-11-15T13:48:31;8.98;;;5.00;;
70535;SDS011;58089;48.752;11.338;2022-11-15T13:50:58;9.90;;;4.60;;
70535;SDS011;58089;48.752;11.338;2022-11-15T13:53:25;15.50;;;6.83;;
70535;SDS011;58089;48.752;11.338;2022-11-15T13:55:50;12.98;;;6.03;;
70535;SDS011;58089;48.752;11.338;2022-11-15T13:58:16;21.05;;;8.73;;
70535;SDS011;58089;48.752;11.338;2022-11-15T14:00:42;32.90;;;10.90;;
70535;SDS011;58089;48.752;11.338;2022-11-15T14:03:25;37.67;;;14.00;;
70535;SDS011;58089;48.752;11.338;2022-11-15T14:06:06;15.60;;;8.13;;
70535;SDS011;58089;48.752;11.338;2022-11-15T14:08:32;12.48;;;6.82;;
70535;SDS011;58089;48.752;11.338;2022-11-15T14:11:05;11.48;;;6.72;;
70535;SDS011;58089;48.752;11.338;2022-11-15T14:13:41;12.25;;;6.68;;
70535;SDS011;58089;48.752;11.338;2022-11-15T14:16:13;15.10;;;6.33;;
70535;SDS011;58089;48.752;11.338;2022-11-15T14:18:43;10.60;;;5.63;;
70535;SDS011;58089;48.752;11.338;2022-11-15T14:21:10;9.40;;;5.85;;
70535;SDS011;58089;48.752;11.338;2022-11-15T14:23:36;14.33;;;5.67;;
70535;SDS011;58089;48.752;11.338;2022-11-15T14:26:01;11.37;;;6.30;;
70535;SDS011;58089;48.752;11.338;2022-11-15T14:30:52;9.47;;;5.73;;
70535;SDS011;58089;48.752;11.338;2022-11-15T14:35:44;8.53;;;5.50;;
70535;SDS011;58089;48.752;11.338;2022-11-15T14:38:09;10.20;;;6.63;;
70535;SDS011;58089;48.752;11.338;2022-11-15T14:40:34;9.60;;;6.30;;
70535;SDS011;58089;48.752;11.338;2022-11-15T14:43:00;11.20;;;6.47;;
70535;SDS011;58089;48.752;11.338;2022-11-15T14:45:26;9.67;;;5.50;;
70535;SDS011;58089;48.752;11.338;2022-11-15T14:47:52;11.90;;;6.05;;
70535;SDS011;58089;48.752;11.338;2022-11-15T14:50:18;10.30;;;5.30;;
70535;SDS011;58089;48.752;11.338;2022-11-15T14:52:44;9.63;;;5.07;;
70535;SDS011;58089;48.752;11.338;2022-11-15T14:55:17;8.30;;;4.90;;
70535;SDS011;58089;48.752;11.338;2022-11-15T14:57:48;9.80;;;5.15;;
70535;SDS011;58089;48.752;11.338;2022-11-15T15:00:13;10.63;;;5.50;;
70535;SDS011;58089;48.752;11.338;2022-11-15T15:02:40;10.15;;;5.50;;
70535;SDS011;58089;48.752;11.338;2022-11-15T15:05:12;10.60;;;5.03;;
70535;SDS011;58089;48.752;11.338;2022-11-15T15:07:39;10.90;;;5.60;;
70535;SDS011;58089;48.752;11.338;2022-11-15T15:10:05;13.43;;;6.17;;
70535;SDS011;58089;48.752;11.338;2022-11-15T15:12:30;10.40;;;5.57;;
70535;SDS011;58089;48.752;11.338;2022-11-15T15:14:55;10.60;;;5.83;;
70535;SDS011;58089;48.752;11.338;2022-11-15T15:17:21;8.63;;;5.37;;
70535;SDS011;58089;48.752;11.338;2022-11-15T15:19:46;10.27;;;5.90;;
70535;SDS011;58089;48.752;11.338;2022-11-15T15:22:14;12.93;;;6.27;;
70535;SDS011;58089;48.752;11.338;2022-11-15T15:24:41;10.98;;;5.70;;
70535;SDS011;58089;48.752;11.338;2022-11-15T15:27:06;10.80;;;5.95;;
70535;SDS011;58089;48.752;11.338;2022-11-15T15:29:32;11.93;;;6.37;;
70535;SDS011;58089;48.752;11.338;2022-11-15T15:31:57;15.37;;;6.40;;
70535;SDS011;58089;48.752;11.338;2022-11-15T15:34:22;12.63;;;6.43;;
70535;SDS011;58089;48.752;11.338;2022-11-15T15:36:48;13.10;;;6.73;;
70535;SDS011;58089;48.752;11.338;2022-11-15T15:39:13;10.00;;;4.90;;
70535;SDS011;58089;48.752;11.338;2022-11-15T15:41:38;9.07;;;4.47;;
70535;SDS011;58089;48.752;11.338;2022-11-15T15:44:03;9.00;;;4.30;;
70535;SDS011;58089;48.752;11.338;2022-11-15T15:46:29;8.97;;;4.07;;
70535;SDS011;58089;48.752;11.338;2022-11-15T15:48:54;8.13;;;4.03;;
70535;SDS011;58089;48.752;11.338;2022-11-15T15:51:19;11.53;;;4.33;;
70535;SDS011;58089;48.752;11.338;2022-11-15T15:53:45;9.40;;;4.00;;
70535;SDS011;58089;48.752;11.338;2022-11-15T15:56:10;7.53;;;3.73;;
70535;SDS011;58089;48.752;11.338;2022-11-15T15:58:35;8.73;;;3.55;;
70535;SDS011;58089;48.752;11.338;2022-11-15T16:01:01;18.30;;;4.33;;
70535;SDS011;58089;48.752;11.338;2022-11-15T16:03:26;10.60;;;4.20;;
70535;SDS011;58089;48.752;11.338;2022-11-15T16:05:52;8.43;;;4.10;;
70535;SDS011;58089;48.752;11.338;2022-11-15T16:08:21;8.83;;;3.80;;
70535;SDS011;58089;48.752;11.338;2022-11-15T16:10:48;8.05;;;3.53;;
70535;SDS011;58089;48.752;11.338;2022-11-15T16:13:13;12.80;;;5.83;;
70535;SDS011;58089;48.752;11.338;2022-11-15T16:15:38;18.13;;;9.90;;
70535;SDS011;58089;48.752;11.338;2022-11-15T16:18:04;28.60;;;13.57;;
70535;SDS011;58089;48.752;11.338;2022-11-15T16:22:57;15.43;;;6.90;;
70535;SDS011;58089;48.752;11.338;2022-11-15T16:25:22;11.75;;;5.70;;
70535;SDS011;58089;48.752;11.338;2022-11-15T16:27:47;15.40;;;7.30;;
70535;SDS011;58089;48.752;11.338;2022-11-15T16:30:14;9.37;;;4.27;;